createdAt,value
2022-10-05T00:01:31.605Z,15.33
2022-10-05T00:04:19.219Z,15.31
2022-10-05T00:06:56.155Z,15.30
2022-10-05T00:09:23.419Z,15.33
2022-10-05T00:11:51.439Z,15.32
2022-10-05T00:14:33.339Z,15.30
2022-10-05T00:17:02.147Z,15.32
2022-10-05T00:19:35.071Z,15.30
2022-10-05T00:22:16.727Z,15.30
2022-10-05T00:24:45.407Z,15.30
2022-10-05T00:27:23.325Z,15.31
2022-10-05T00:29:52.837Z,15.33
2022-10-05T00:32:19.961Z,15.29
2022-10-05T00:34:47.449Z,15.28
2022-10-05T00:37:14.963Z,15.28
2022-10-05T00:39:42.841Z,15.31
2022-10-05T00:42:32.745Z,15.28
2022-10-05T00:45:07.458Z,15.26
2022-10-05T00:47:46.640Z,15.26
2022-10-05T00:50:45.568Z,15.24
2022-10-05T00:53:43.946Z,15.24
2022-10-05T00:56:54.628Z,15.26
2022-10-05T01:00:16.100Z,15.30
2022-10-05T01:03:13.031Z,15.28
2022-10-05T01:06:22.538Z,15.25
2022-10-05T01:09:15.670Z,15.22
2022-10-05T01:11:58.012Z,15.20
2022-10-05T01:14:46.217Z,15.20
2022-10-05T01:17:26.234Z,15.18
2022-10-05T01:20:39.517Z,15.16
2022-10-05T01:23:58.777Z,15.15
2022-10-05T01:27:09.676Z,15.14
2022-10-05T01:29:56.917Z,15.11
2022-10-05T01:32:53.113Z,15.12
2022-10-05T01:35:47.221Z,15.10
2022-10-05T01:38:40.151Z,15.08
2022-10-05T01:41:28.132Z,15.06
2022-10-05T01:44:16.408Z,15.05
2022-10-05T01:47:13.500Z,15.04
2022-10-05T01:50:12.346Z,14.99
2022-10-05T01:52:51.090Z,14.98
2022-10-05T01:56:03.324Z,14.97
2022-10-05T01:58:51.652Z,14.92
2022-10-05T02:01:42.708Z,14.89
2022-10-05T02:05:00.380Z,14.88
2022-10-05T02:07:58.448Z,14.88
2022-10-05T02:10:38.283Z,14.84
2022-10-05T02:13:24.959Z,14.84
2022-10-05T02:16:05.408Z,14.82
2022-10-05T02:18:56.838Z,14.79
2022-10-05T02:21:25.135Z,14.79
2022-10-05T02:23:57.483Z,14.78
2022-10-05T02:26:26.167Z,14.78
2022-10-05T02:28:59.511Z,14.78
2022-10-05T02:31:43.377Z,14.77
2022-10-05T02:34:29.968Z,14.76
2022-10-05T02:37:25.224Z,14.74
2022-10-05T02:40:57.238Z,14.75
2022-10-05T02:43:53.912Z,14.77
2022-10-05T02:46:36.626Z,14.71
2022-10-05T02:49:26.399Z,14.70
2022-10-05T02:52:08.492Z,14.70
2022-10-05T02:54:41.299Z,14.69
2022-10-05T02:57:47.195Z,14.65
2022-10-05T03:00:21.328Z,14.66
2022-10-05T03:03:06.422Z,14.69
2022-10-05T03:05:48.721Z,14.65
2022-10-05T03:08:26.899Z,14.63
2022-10-05T03:11:26.515Z,14.61
2022-10-05T03:14:23.445Z,14.64
2022-10-05T03:17:18.977Z,14.59
2022-10-05T03:20:34.184Z,14.62
2022-10-05T03:23:12.345Z,14.61
2022-10-05T03:26:36.500Z,14.61
2022-10-05T03:29:34.755Z,14.63
2022-10-05T03:32:41.794Z,14.65
2022-10-05T03:35:23.202Z,14.65
2022-10-05T03:38:20.922Z,14.65
2022-10-05T03:40:59.211Z,14.68
2022-10-05T03:43:56.200Z,14.68
2022-10-05T03:46:48.959Z,14.67
2022-10-05T03:49:59.506Z,14.69
2022-10-05T03:52:52.044Z,14.67
2022-10-05T03:55:45.833Z,14.67
2022-10-05T03:58:44.223Z,14.69
2022-10-05T04:01:18.661Z,14.69
2022-10-05T04:04:04.050Z,14.68
2022-10-05T04:06:38.531Z,14.71
2022-10-05T04:09:31.673Z,14.71
2022-10-05T04:12:26.285Z,14.71
2022-10-05T04:15:42.172Z,14.72
2022-10-05T04:18:34.253Z,14.71
2022-10-05T04:21:37.035Z,14.70
2022-10-05T04:24:24.608Z,14.70
2022-10-05T04:27:19.713Z,14.68
2022-10-05T04:29:56.104Z,14.69
2022-10-05T04:32:43.365Z,14.70
2022-10-05T04:35:59.922Z,14.70
2022-10-05T04:38:43.340Z,14.68
2022-10-05T04:41:25.664Z,14.68
2022-10-05T04:44:41.231Z,14.69
2022-10-05T04:47:35.240Z,14.67
2022-10-05T04:50:12.835Z,14.73
2022-10-05T04:53:04.543Z,14.66
2022-10-05T04:55:58.422Z,14.66
2022-10-05T04:59:00.672Z,14.67
2022-10-05T05:01:58.904Z,14.67
2022-10-05T05:04:37.733Z,14.66
2022-10-05T05:07:28.255Z,14.65
2022-10-05T05:10:39.530Z,14.64
2022-10-05T05:13:50.545Z,14.66
2022-10-05T05:16:41.285Z,14.66
2022-10-05T05:19:38.865Z,14.63
2022-10-05T05:22:18.963Z,14.64
2022-10-05T05:25:13.992Z,14.66
2022-10-05T05:28:17.679Z,14.65
2022-10-05T05:31:22.988Z,14.65
2022-10-05T05:34:30.300Z,14.65
2022-10-05T05:37:36.080Z,14.61
2022-10-05T05:40:25.251Z,14.59
2022-10-05T05:43:02.748Z,14.60
2022-10-05T05:45:45.283Z,14.60
2022-10-05T05:48:41.644Z,14.60
2022-10-05T05:51:48.252Z,14.58
2022-10-05T05:54:31.662Z,14.59
2022-10-05T05:57:16.421Z,14.59
2022-10-05T06:00:24.038Z,14.58
2022-10-05T06:03:31.742Z,14.59
2022-10-05T06:06:05.414Z,14.58
2022-10-05T06:08:56.624Z,14.58
2022-10-05T06:11:37.392Z,14.59
2022-10-05T06:14:25.953Z,14.60
2022-10-05T06:17:21.300Z,14.58
2022-10-05T06:19:50.947Z,14.60
2022-10-05T06:22:34.164Z,14.62
2022-10-05T06:25:24.313Z,14.59
2022-10-05T06:28:00.313Z,14.59
2022-10-05T06:30:56.978Z,14.59
2022-10-05T06:33:54.092Z,14.60
2022-10-05T06:36:50.463Z,14.62
2022-10-05T06:39:26.320Z,14.60
2022-10-05T06:42:02.013Z,14.64
2022-10-05T06:44:53.422Z,14.67
2022-10-05T06:48:04.285Z,14.66
2022-10-05T06:50:55.465Z,14.66
2022-10-05T06:54:10.877Z,14.66
2022-10-05T06:57:04.632Z,14.69
2022-10-05T06:59:51.008Z,14.70
2022-10-05T07:02:42.138Z,14.72
2022-10-05T07:05:50.422Z,14.73
2022-10-05T07:08:43.538Z,14.74
2022-10-05T07:11:42.151Z,14.76
2022-10-05T07:14:20.988Z,14.79
2022-10-05T07:17:20.834Z,14.82
2022-10-05T07:20:22.828Z,14.83
2022-10-05T07:23:25.360Z,14.87
2022-10-05T07:26:17.902Z,14.88
2022-10-05T07:29:14.851Z,14.88
2022-10-05T07:31:58.613Z,14.91
2022-10-05T07:34:43.589Z,14.91
2022-10-05T07:37:38.627Z,14.89
2022-10-05T07:40:28.065Z,14.91
2022-10-05T07:43:17.548Z,14.90
2022-10-05T07:45:53.237Z,14.92
2022-10-05T07:48:37.686Z,14.90
2022-10-05T07:51:36.763Z,14.92
2022-10-05T07:54:25.132Z,14.93
2022-10-05T07:57:21.164Z,14.95
2022-10-05T08:00:11.322Z,14.93
2022-10-05T08:02:58.370Z,14.96
2022-10-05T08:05:35.872Z,14.97
2022-10-05T08:08:39.011Z,14.95
2022-10-05T08:11:19.569Z,14.98
2022-10-05T08:14:00.764Z,15.00
2022-10-05T08:16:35.448Z,15.03
2022-10-05T08:19:23.210Z,15.02
2022-10-05T08:22:03.223Z,15.02
2022-10-05T08:25:05.257Z,15.05
2022-10-05T08:28:04.883Z,15.09
2022-10-05T08:30:48.585Z,15.09
2022-10-05T08:33:18.651Z,15.10
2022-10-05T08:35:55.755Z,15.13
2022-10-05T08:38:32.630Z,15.13
2022-10-05T08:41:36.014Z,15.18
2022-10-05T08:44:29.181Z,15.19
2022-10-05T08:47:36.466Z,15.22
2022-10-05T08:50:29.712Z,15.29
2022-10-05T08:53:49.529Z,15.25
2022-10-05T08:56:44.067Z,15.28
2022-10-05T08:59:49.888Z,15.32
2022-10-05T09:02:45.907Z,15.28
2022-10-05T09:05:47.079Z,15.32
2022-10-05T09:08:46.831Z,15.36
2022-10-05T09:11:53.545Z,15.38
2022-10-05T09:15:13.700Z,15.40
2022-10-05T09:18:00.862Z,15.42
2022-10-05T09:20:45.556Z,15.46
2022-10-05T09:23:33.165Z,15.54
2022-10-05T09:26:23.110Z,15.53
2022-10-05T09:29:33.165Z,15.57
2022-10-05T09:32:40.149Z,15.66
2022-10-05T09:35:44.542Z,15.68
2022-10-05T09:39:05.098Z,15.76
2022-10-05T09:42:06.685Z,15.84
2022-10-05T09:45:21.768Z,15.89
2022-10-05T09:48:16.211Z,15.93
2022-10-05T09:51:29.665Z,15.96
2022-10-05T09:54:44.227Z,16.00
2022-10-05T09:57:53.067Z,16.15
2022-10-05T10:00:50.121Z,16.16
2022-10-05T10:03:50.215Z,16.23
2022-10-05T10:06:47.581Z,16.31
2022-10-05T10:09:38.704Z,16.38
2022-10-05T10:12:33.660Z,16.50
2022-10-05T10:15:23.892Z,16.51
2022-10-05T10:18:26.274Z,16.58
2022-10-05T10:21:18.852Z,16.56
2022-10-05T10:24:02.603Z,16.61
2022-10-05T10:27:04.428Z,16.72
2022-10-05T10:29:51.616Z,16.70
2022-10-05T10:32:46.236Z,16.64
2022-10-05T10:35:35.088Z,16.74
2022-10-05T10:38:28.748Z,16.70
2022-10-05T10:41:20.347Z,16.70
2022-10-05T10:44:28.469Z,16.72
2022-10-05T10:47:36.820Z,16.72
2022-10-05T10:50:28.288Z,16.65
2022-10-05T10:53:16.720Z,16.67
2022-10-05T10:56:25.338Z,16.78
2022-10-05T10:59:20.250Z,16.72
2022-10-05T11:02:15.485Z,16.74
2022-10-05T11:05:07.734Z,16.73
2022-10-05T11:07:43.560Z,16.71
2022-10-05T11:10:23.039Z,16.72
2022-10-05T11:13:32.784Z,16.69
2022-10-05T11:16:52.450Z,16.68
2022-10-05T11:20:16.673Z,16.74
2022-10-05T11:23:05.763Z,16.73
2022-10-05T11:25:44.172Z,16.78
2022-10-05T11:28:41.548Z,16.77
2022-10-05T11:31:33.924Z,16.82
2022-10-05T11:34:28.382Z,16.84
2022-10-05T11:37:23.211Z,16.88
2022-10-05T11:40:31.395Z,16.92
2022-10-05T11:43:41.627Z,16.95
2022-10-05T11:46:16.789Z,17.00
2022-10-05T11:49:04.976Z,17.08
2022-10-05T11:51:37.884Z,17.09
2022-10-05T11:54:58.458Z,17.07
2022-10-05T11:57:53.475Z,17.11
2022-10-05T12:00:31.679Z,17.11
2022-10-05T12:03:50.226Z,17.17
2022-10-05T12:06:44.551Z,17.19
2022-10-05T12:10:05.636Z,17.21
2022-10-05T12:13:02.295Z,17.27
2022-10-05T12:15:37.221Z,17.29
2022-10-05T12:18:16.093Z,17.31
2022-10-05T12:20:54.765Z,17.30
2022-10-05T12:23:44.886Z,17.35
2022-10-05T12:26:40.897Z,17.36
2022-10-05T12:29:39.311Z,17.39
2022-10-05T12:32:21.186Z,17.45
2022-10-05T12:35:04.521Z,17.51
2022-10-05T12:38:05.189Z,17.60
2022-10-05T12:40:51.569Z,17.63
2022-10-05T12:43:53.703Z,17.70
2022-10-05T12:46:38.487Z,17.79
2022-10-05T12:49:36.446Z,17.83
2022-10-05T12:52:24.480Z,17.85
2022-10-05T12:55:16.126Z,17.87
2022-10-05T12:58:02.069Z,17.85
2022-10-05T13:00:35.847Z,17.89
2022-10-05T13:03:18.172Z,17.87
2022-10-05T13:05:56.940Z,17.88
2022-10-05T13:08:50.580Z,17.84
2022-10-05T13:11:52.939Z,17.85
2022-10-05T13:15:04.261Z,17.85
2022-10-05T13:18:06.308Z,17.85
2022-10-05T13:21:04.460Z,17.81
2022-10-05T13:23:40.772Z,17.84
2022-10-05T13:26:14.850Z,17.82
2022-10-05T13:29:09.338Z,17.78
2022-10-05T13:34:50.240Z,17.66
2022-10-05T13:37:43.240Z,17.70
2022-10-05T13:40:53.717Z,17.73
2022-10-05T13:43:39.962Z,17.71
2022-10-05T13:46:42.875Z,17.78
2022-10-05T13:49:37.931Z,17.79
2022-10-05T13:52:53.971Z,17.87
2022-10-05T13:55:54.316Z,17.90
2022-10-05T13:58:36.665Z,17.97
2022-10-05T14:01:41.588Z,18.02
2022-10-05T14:04:25.412Z,17.95
2022-10-05T14:06:52.810Z,18.00
2022-10-05T14:09:29.552Z,18.01
2022-10-05T14:12:11.071Z,17.99
2022-10-05T14:14:53.414Z,18.05
2022-10-05T14:17:40.698Z,18.00
2022-10-05T14:20:28.944Z,18.08
2022-10-05T14:23:05.814Z,18.04
2022-10-05T14:25:53.675Z,17.97
2022-10-05T14:28:32.751Z,17.99
2022-10-05T14:31:48.470Z,18.07
2022-10-05T14:34:35.664Z,18.03
2022-10-05T14:37:23.516Z,17.98
2022-10-05T14:39:54.580Z,17.96
2022-10-05T14:42:28.772Z,17.86
2022-10-05T14:45:18.179Z,17.82
2022-10-05T14:48:02.365Z,17.78
2022-10-05T14:50:31.570Z,17.69
2022-10-05T14:53:16.688Z,17.65
2022-10-05T14:56:21.877Z,17.59
2022-10-05T14:59:25.939Z,17.59
2022-10-05T15:02:17.387Z,17.59
2022-10-05T15:05:31.429Z,17.53
2022-10-05T15:08:24.148Z,17.56
2022-10-05T15:11:03.323Z,17.63
2022-10-05T15:13:38.504Z,17.58
2022-10-05T15:16:21.197Z,17.47
2022-10-05T15:19:21.637Z,17.49
2022-10-05T15:22:19.090Z,17.42
2022-10-05T15:25:03.535Z,17.41
2022-10-05T15:28:00.122Z,17.39
2022-10-05T15:30:27.128Z,17.37
2022-10-05T15:33:15.553Z,17.36
2022-10-05T15:36:06.325Z,17.31
2022-10-05T15:38:49.875Z,17.30
2022-10-05T15:41:52.809Z,17.29
2022-10-05T15:44:55.215Z,17.24
2022-10-05T15:47:47.663Z,17.21
2022-10-05T15:50:39.288Z,17.18
2022-10-05T15:53:33.135Z,17.18
2022-10-05T15:56:20.785Z,17.23
2022-10-05T15:59:17.627Z,17.18
2022-10-05T16:02:00.864Z,17.16
2022-10-05T16:05:17.447Z,17.18
2022-10-05T16:08:11.206Z,17.15
2022-10-05T16:10:44.370Z,17.14
2022-10-05T16:13:34.019Z,17.10
2022-10-05T16:16:51.891Z,17.08
2022-10-05T16:19:24.859Z,17.05
2022-10-05T16:22:03.859Z,17.04
2022-10-05T16:24:42.617Z,17.06
2022-10-05T16:27:49.740Z,16.97
2022-10-05T16:30:23.094Z,16.98
2022-10-05T16:33:05.502Z,16.93
2022-10-05T16:36:02.809Z,16.90
2022-10-05T16:39:05.330Z,16.91
2022-10-05T16:41:57.273Z,16.88
2022-10-05T16:44:38.891Z,16.82
2022-10-05T16:47:53.752Z,16.81
2022-10-05T16:51:19.915Z,16.81
2022-10-05T16:54:08.423Z,16.77
2022-10-05T16:57:17.345Z,16.75
2022-10-05T16:59:59.226Z,16.75
2022-10-05T17:03:04.819Z,16.76
2022-10-05T17:06:12.176Z,16.72
2022-10-05T17:09:16.940Z,16.72
2022-10-05T17:12:12.132Z,16.72
2022-10-05T17:15:11.184Z,16.74
2022-10-05T17:17:58.707Z,16.71
2022-10-05T17:21:16.596Z,16.70
2022-10-05T17:24:18.935Z,16.67
2022-10-05T17:26:45.804Z,16.67
2022-10-05T17:29:51.635Z,16.68
2022-10-05T17:32:18.531Z,16.67
2022-10-05T17:35:00.456Z,16.68
2022-10-05T17:37:27.273Z,16.67
2022-10-05T17:39:56.971Z,16.66
2022-10-05T17:42:28.567Z,16.66
2022-10-05T17:45:14.572Z,16.66
2022-10-05T17:48:03.208Z,16.66
2022-10-05T17:51:02.978Z,16.68
2022-10-05T17:54:02.226Z,16.67
2022-10-05T17:56:31.661Z,16.65
2022-10-05T17:59:03.309Z,16.65
2022-10-05T18:01:39.538Z,16.66
2022-10-05T18:04:12.628Z,16.65
2022-10-05T18:07:04.857Z,16.68
2022-10-05T18:09:50.294Z,16.68
2022-10-05T18:12:17.715Z,16.69
2022-10-05T18:15:00.914Z,16.69
2022-10-05T18:17:51.262Z,16.69
2022-10-05T18:20:34.821Z,16.70
2022-10-05T18:23:07.609Z,16.69
2022-10-05T18:26:20.363Z,16.69
2022-10-05T18:29:55.635Z,16.69
2022-10-05T18:32:47.010Z,16.69
2022-10-05T18:35:46.620Z,16.70
2022-10-05T18:38:56.784Z,16.72
2022-10-05T18:41:40.400Z,16.73
2022-10-05T18:44:33.713Z,16.72
2022-10-05T18:47:18.908Z,16.76
2022-10-05T18:50:27.284Z,16.73
2022-10-05T18:53:08.477Z,16.76
2022-10-05T18:56:03.182Z,16.78
2022-10-05T18:59:18.350Z,16.80
2022-10-05T19:02:23.990Z,16.83
2022-10-05T19:05:45.846Z,16.86
2022-10-05T19:08:19.337Z,16.89
2022-10-05T19:10:55.357Z,16.94
2022-10-05T19:13:50.899Z,16.92
2022-10-05T19:17:07.698Z,16.97
2022-10-05T19:20:05.172Z,16.97
2022-10-05T19:22:56.925Z,16.97
2022-10-05T19:25:36.763Z,16.98
2022-10-05T19:28:37.492Z,16.98
2022-10-05T19:31:30.602Z,16.99
2022-10-05T19:34:16.495Z,16.98
2022-10-05T19:36:43.996Z,16.98
2022-10-05T19:39:45.639Z,16.99
2022-10-05T19:42:30.274Z,17.04
2022-10-05T19:45:33.437Z,16.99
2022-10-05T19:48:21.413Z,16.75
2022-10-05T19:51:02.146Z,16.47
2022-10-05T19:53:37.884Z,16.27
2022-10-05T19:56:25.117Z,15.91
2022-10-05T19:58:56.395Z,15.51
2022-10-05T20:01:36.368Z,15.34
2022-10-05T20:04:04.953Z,15.35
2022-10-05T20:06:31.873Z,15.10
2022-10-05T20:09:01.903Z,14.93
2022-10-05T20:11:29.298Z,14.77
2022-10-05T20:14:02.377Z,14.73
2022-10-05T20:16:53.220Z,14.60
2022-10-05T20:19:54.744Z,14.57
2022-10-05T20:22:46.321Z,14.54
2022-10-05T20:25:19.342Z,14.53
2022-10-05T20:27:51.132Z,14.44
2022-10-05T20:30:25.104Z,14.44
2022-10-05T20:33:10.267Z,14.39
2022-10-05T20:35:37.141Z,14.30
2022-10-05T20:38:04.013Z,14.35
2022-10-05T20:40:31.078Z,14.36
2022-10-05T20:42:58.925Z,14.38
2022-10-05T20:45:25.941Z,14.34
2022-10-05T20:47:52.835Z,14.37
2022-10-05T20:50:22.731Z,14.37
2022-10-05T20:52:49.739Z,14.36
2022-10-05T20:55:16.720Z,14.37
2022-10-05T20:57:45.608Z,14.42
2022-10-05T21:00:13.515Z,14.41
2022-10-05T21:02:40.615Z,14.45
2022-10-05T21:05:08.362Z,14.45
2022-10-05T21:07:35.607Z,14.45
2022-10-05T21:10:03.765Z,14.38
2022-10-05T21:12:32.621Z,14.36
2022-10-05T21:14:59.780Z,14.30
2022-10-05T21:17:26.736Z,14.21
2022-10-05T21:19:53.652Z,14.09
2022-10-05T21:22:20.537Z,14.08
2022-10-05T21:24:48.322Z,14.01
2022-10-05T21:27:15.565Z,13.87
2022-10-05T21:29:44.007Z,13.83
2022-10-05T21:32:11.719Z,13.87
2022-10-05T21:34:40.463Z,13.88
2022-10-05T21:37:08.702Z,13.86
2022-10-05T21:39:36.481Z,13.79
2022-10-05T21:42:03.718Z,13.79
2022-10-05T21:44:30.612Z,13.78
2022-10-05T21:46:57.587Z,13.78
2022-10-05T21:49:25.609Z,13.76
2022-10-05T21:51:52.642Z,13.76
2022-10-05T21:54:22.523Z,13.73
2022-10-05T21:56:53.888Z,13.67
2022-10-05T21:59:26.351Z,13.69
2022-10-05T22:01:53.352Z,13.68
2022-10-05T22:04:20.674Z,13.68
2022-10-05T22:06:48.894Z,13.63
2022-10-05T22:09:15.852Z,13.58
2022-10-05T22:11:45.667Z,13.56
2022-10-05T22:14:15.516Z,13.48
2022-10-05T22:16:43.468Z,13.48
2022-10-05T22:19:18.844Z,13.41
2022-10-05T22:21:45.745Z,13.37
2022-10-05T22:24:12.644Z,13.30
2022-10-05T22:26:42.790Z,13.28
2022-10-05T22:29:09.890Z,13.27
2022-10-05T22:31:37.393Z,13.27
2022-10-05T22:34:04.420Z,13.23
2022-10-05T22:36:33.164Z,13.27
2022-10-05T22:39:00.049Z,13.22
2022-10-05T22:41:26.928Z,13.18
2022-10-05T22:43:53.797Z,13.18
2022-10-05T22:46:21.757Z,13.17
2022-10-05T22:48:48.682Z,13.18
2022-10-05T22:51:15.577Z,13.16
2022-10-05T22:53:42.471Z,13.11
2022-10-05T22:56:14.567Z,13.13
2022-10-05T22:58:42.895Z,13.11
2022-10-05T23:01:14.722Z,13.11
2022-10-05T23:03:42.027Z,13.07
2022-10-05T23:06:13.304Z,13.12
2022-10-05T23:08:42.045Z,13.07
2022-10-05T23:11:13.839Z,13.08
2022-10-05T23:13:41.528Z,13.03
2022-10-05T23:16:15.226Z,12.98
2022-10-05T23:18:43.438Z,12.98
2022-10-05T23:21:11.511Z,13.00
2022-10-05T23:23:41.035Z,12.97
2022-10-05T23:26:11.636Z,12.98
2022-10-05T23:28:49.132Z,12.92
2022-10-05T23:31:20.480Z,12.97
2022-10-05T23:33:48.298Z,12.97
2022-10-05T23:36:22.036Z,12.91
2022-10-05T23:38:49.513Z,12.88
2022-10-05T23:41:17.508Z,12.92
2022-10-05T23:43:44.474Z,12.90
2022-10-05T23:46:12.392Z,12.90
2022-10-05T23:48:40.106Z,12.91
2022-10-05T23:51:10.550Z,12.90
2022-10-05T23:53:37.580Z,12.88
2022-10-05T23:56:05.501Z,12.88
2022-10-05T23:58:32.632Z,12.80
